createdAt,value
2022-10-13T00:00:48.165Z,10.4
2022-10-13T00:05:47.980Z,10.3
2022-10-13T00:10:47.992Z,10.3
2022-10-13T00:15:48.003Z,10.3
2022-10-13T00:20:48.047Z,10.3
2022-10-13T00:25:47.987Z,10.3
2022-10-13T00:30:47.983Z,10.3
2022-10-13T00:35:47.988Z,10.3
2022-10-13T00:40:48.008Z,10.4
2022-10-13T00:45:47.982Z,10.3
2022-10-13T00:50:47.973Z,10.3
2022-10-13T00:55:47.979Z,10.3
2022-10-13T01:00:48.060Z,10.3
2022-10-13T01:05:47.971Z,10.3
2022-10-13T01:10:47.990Z,10.3
2022-10-13T01:15:48.011Z,10.2
2022-10-13T01:20:48.000Z,10.2
2022-10-13T01:25:47.980Z,10.2
2022-10-13T01:30:47.994Z,10.2
2022-10-13T01:35:47.977Z,10.1
2022-10-13T01:40:48.024Z,10.1
2022-10-13T01:45:48.001Z,10.1
2022-10-13T01:50:47.993Z,10
2022-10-13T01:55:47.982Z,9.9
2022-10-13T02:00:48.028Z,9.9
2022-10-13T02:05:47.981Z,9.8
2022-10-13T02:10:47.992Z,9.8
2022-10-13T02:15:47.987Z,9.8
2022-10-13T02:20:48.047Z,9.8
2022-10-13T02:25:48.083Z,9.7
2022-10-13T02:30:48.150Z,9.7
2022-10-13T02:35:48.163Z,9.7
2022-10-13T02:40:48.316Z,9.6
2022-10-13T02:45:48.256Z,9.7
2022-10-13T02:50:48.261Z,9.7
2022-10-13T02:55:48.311Z,9.7
2022-10-13T03:00:48.327Z,9.6
2022-10-13T03:05:48.164Z,9.6
2022-10-13T03:10:48.262Z,9.6
2022-10-13T03:15:48.186Z,9.6
2022-10-13T03:20:48.265Z,9.6
2022-10-13T03:25:48.180Z,9.6
2022-10-13T03:30:48.197Z,9.5
2022-10-13T03:35:48.187Z,9.5
2022-10-13T03:40:48.269Z,9.5
2022-10-13T03:45:48.172Z,9.4
2022-10-13T03:50:48.183Z,9.3
2022-10-13T03:55:48.174Z,9.3
2022-10-13T04:00:48.195Z,9.3
2022-10-13T04:05:48.172Z,9.3
2022-10-13T04:10:48.184Z,9.3
2022-10-13T04:15:48.164Z,9.3
2022-10-13T04:20:48.207Z,9.3
2022-10-13T04:25:48.176Z,9.4
2022-10-13T04:30:49.505Z,9.3
2022-10-13T04:35:48.172Z,9.3
2022-10-13T04:40:48.186Z,9.4
2022-10-13T04:45:48.160Z,9.4
2022-10-13T04:50:48.184Z,9.4
2022-10-13T04:55:48.225Z,9.4
2022-10-13T05:00:48.344Z,9.4
2022-10-13T05:05:48.278Z,9.4
2022-10-13T05:10:48.367Z,9.4
2022-10-13T05:15:48.347Z,9.4
2022-10-13T05:20:48.362Z,9.5
2022-10-13T05:25:48.271Z,9.6
2022-10-13T05:30:48.283Z,9.7
2022-10-13T05:35:48.294Z,9.7
2022-10-13T05:40:48.294Z,9.7
2022-10-13T05:45:48.276Z,9.8
2022-10-13T05:50:48.270Z,9.9
2022-10-13T05:55:48.276Z,9.9
2022-10-13T06:00:48.290Z,9.9
2022-10-13T06:05:48.340Z,9.9
2022-10-13T06:10:48.270Z,10
2022-10-13T06:15:48.270Z,10
2022-10-13T06:20:48.287Z,10
2022-10-13T06:25:48.267Z,10.1
2022-10-13T06:30:48.264Z,10.1
2022-10-13T06:35:48.525Z,10.1
2022-10-13T06:40:48.332Z,10.2
2022-10-13T06:45:48.272Z,10.2
2022-10-13T06:50:48.251Z,10.2
2022-10-13T06:55:52.286Z,10.2
2022-10-13T07:00:48.412Z,10.2
2022-10-13T07:05:48.253Z,10.2
2022-10-13T07:10:48.256Z,10.3
2022-10-13T07:15:48.266Z,10.4
2022-10-13T07:20:48.271Z,10.4
2022-10-13T07:25:48.263Z,10.5
2022-10-13T07:30:48.249Z,10.6
2022-10-13T07:35:48.258Z,10.7
2022-10-13T07:40:48.270Z,10.8
2022-10-13T07:45:48.258Z,10.9
2022-10-13T07:50:48.253Z,11.1
2022-10-13T07:55:48.248Z,11.2
2022-10-13T08:00:48.282Z,11.3
2022-10-13T08:05:48.249Z,11.4
2022-10-13T08:10:48.282Z,11.6
2022-10-13T08:15:48.299Z,11.8
2022-10-13T08:20:48.276Z,11.9
2022-10-13T08:25:48.248Z,12.1
2022-10-13T08:30:48.376Z,12.3
2022-10-13T08:35:48.242Z,12.4
2022-10-13T08:40:48.395Z,12.5
2022-10-13T08:45:48.245Z,12.6
2022-10-13T08:50:48.358Z,12.7
2022-10-13T08:55:48.230Z,12.8
2022-10-13T09:00:48.254Z,13
2022-10-13T09:05:48.229Z,13.1
2022-10-13T09:10:48.288Z,13.2
2022-10-13T09:15:48.255Z,13.4
2022-10-13T09:20:48.380Z,13.5
2022-10-13T09:25:48.238Z,13.7
2022-10-13T09:30:48.239Z,13.7
2022-10-13T09:35:48.249Z,13.8
2022-10-13T09:40:48.352Z,13.9
2022-10-13T09:45:48.236Z,13.9
2022-10-13T09:50:48.233Z,14
2022-10-13T09:55:48.244Z,14.1
2022-10-13T10:00:48.258Z,14.1
2022-10-13T10:05:48.230Z,14.2
2022-10-13T10:10:48.229Z,14.2
2022-10-13T10:15:48.234Z,14.3
2022-10-13T10:20:48.256Z,14.4
2022-10-13T10:25:48.231Z,14.5
2022-10-13T10:30:48.228Z,14.7
2022-10-13T10:35:48.225Z,14.8
2022-10-13T10:40:48.253Z,14.9
2022-10-13T10:45:48.217Z,15
2022-10-13T10:50:48.219Z,15.2
2022-10-13T10:55:48.269Z,15.4
2022-10-13T11:00:48.235Z,15.5
2022-10-13T11:05:48.222Z,15.5
2022-10-13T11:10:48.223Z,15.6
2022-10-13T11:15:48.212Z,15.8
2022-10-13T11:20:48.254Z,15.9
2022-10-13T11:25:48.211Z,16
2022-10-13T11:30:48.214Z,16
2022-10-13T11:35:48.206Z,16.2
2022-10-13T11:40:48.246Z,16.4
2022-10-13T11:45:48.202Z,16.6
2022-10-13T11:50:48.206Z,16.7
2022-10-13T11:55:48.258Z,16.8
2022-10-13T12:00:48.217Z,16.9
2022-10-13T12:05:48.199Z,17
2022-10-13T12:10:48.198Z,17
2022-10-13T12:15:48.203Z,17
2022-10-13T12:20:48.335Z,17
2022-10-13T12:25:48.205Z,17.1
2022-10-13T12:30:48.205Z,17.2
2022-10-13T12:35:48.182Z,17.2
2022-10-13T12:40:48.220Z,17.3
2022-10-13T12:45:48.254Z,17.4
2022-10-13T12:50:48.187Z,17.5
2022-10-13T12:55:48.203Z,17.5
2022-10-13T13:00:48.317Z,17.6
2022-10-13T13:05:52.314Z,17.6
2022-10-13T13:10:48.175Z,17.6
2022-10-13T13:15:48.183Z,17.6
2022-10-13T13:20:48.210Z,17.7
2022-10-13T13:25:48.202Z,17.6
2022-10-13T13:30:48.183Z,17.6
2022-10-13T13:35:48.181Z,17.6
2022-10-13T13:40:48.202Z,17.6
2022-10-13T13:45:48.215Z,17.6
2022-10-13T13:50:48.175Z,17.6
2022-10-13T13:55:48.186Z,17.6
2022-10-13T14:00:48.213Z,17.7
2022-10-13T14:05:48.173Z,17.8
2022-10-13T14:10:48.192Z,17.8
2022-10-13T14:15:48.174Z,18.1
2022-10-13T14:20:48.200Z,18.3
2022-10-13T14:25:48.165Z,18.5
2022-10-13T14:30:48.162Z,18.6
2022-10-13T14:35:48.162Z,18.7
2022-10-13T14:40:48.193Z,18.7
2022-10-13T14:45:48.159Z,18.7
2022-10-13T14:50:48.166Z,18.7
2022-10-13T14:55:48.148Z,18.7
2022-10-13T15:00:48.316Z,18.6
2022-10-13T15:05:48.245Z,18.6
2022-10-13T15:10:48.236Z,18.5
2022-10-13T15:15:48.238Z,18.5
2022-10-13T15:20:48.262Z,18.5
2022-10-13T15:25:48.237Z,18.5
2022-10-13T15:30:48.247Z,18.4
2022-10-13T15:35:48.314Z,18.4
2022-10-13T15:40:48.262Z,18.4
2022-10-13T15:45:48.233Z,18.4
2022-10-13T15:50:48.232Z,18.2
2022-10-13T15:55:48.221Z,18.1
2022-10-13T16:00:48.307Z,18
2022-10-13T16:05:48.236Z,17.9
2022-10-13T16:10:48.239Z,17.8
2022-10-13T16:15:48.230Z,17.7
2022-10-13T16:20:48.246Z,17.6
2022-10-13T16:25:48.228Z,17.5
2022-10-13T16:30:48.232Z,17.4
2022-10-13T16:35:48.233Z,17.4
2022-10-13T16:40:48.239Z,17.3
2022-10-13T16:45:59.480Z,17.2
2022-10-13T16:50:48.229Z,17.1
2022-10-13T16:55:48.215Z,17
2022-10-13T17:00:48.261Z,16.9
2022-10-13T17:05:48.221Z,16.9
2022-10-13T17:10:51.713Z,16.8
2022-10-13T17:15:48.215Z,16.7
2022-10-13T17:20:48.238Z,16.6
2022-10-13T17:25:48.208Z,16.5
2022-10-13T17:30:48.211Z,16.4
2022-10-13T17:35:48.207Z,16.3
2022-10-13T17:40:48.228Z,16.2
2022-10-13T17:45:48.200Z,16
2022-10-13T17:50:48.208Z,16
2022-10-13T17:55:48.199Z,15.9
2022-10-13T18:01:11.670Z,15.9
2022-10-13T18:05:48.209Z,15.7
2022-10-13T18:15:48.203Z,15.5
2022-10-13T18:20:48.225Z,15.4
2022-10-13T18:25:48.192Z,15.3
2022-10-13T18:30:48.187Z,15.2
2022-10-13T18:35:48.200Z,15.2
2022-10-13T18:40:48.220Z,15.1
2022-10-13T18:45:48.183Z,15
2022-10-13T18:50:48.189Z,14.9
2022-10-13T18:55:48.185Z,14.8
2022-10-13T19:00:48.282Z,14.7
2022-10-13T19:05:48.177Z,14.7
2022-10-13T19:10:48.196Z,14.7
2022-10-13T19:15:48.207Z,14.8
2022-10-13T19:20:48.212Z,14.7
2022-10-13T19:25:48.180Z,14.6
2022-10-13T19:30:48.176Z,14.5
2022-10-13T19:35:48.175Z,14.3
2022-10-13T19:40:48.204Z,14.2
2022-10-13T19:45:48.168Z,14
2022-10-13T19:50:48.170Z,14
2022-10-13T19:55:48.176Z,13.9
2022-10-13T20:00:48.231Z,13.8
2022-10-13T20:05:48.178Z,13.8
2022-10-13T20:10:48.229Z,13.7
2022-10-13T20:15:48.177Z,13.7
2022-10-13T20:20:48.191Z,13.7
2022-10-13T20:25:48.170Z,13.7
2022-10-13T20:30:48.154Z,13.6
2022-10-13T20:35:48.153Z,13.5
2022-10-13T20:40:48.179Z,13.4
2022-10-13T20:45:48.153Z,13.4
2022-10-13T20:50:48.333Z,13.3
2022-10-13T20:55:48.159Z,13.3
2022-10-13T21:00:48.222Z,13.2
2022-10-13T21:05:48.154Z,13.2
2022-10-13T21:10:48.155Z,13.2
2022-10-13T21:15:48.155Z,13.2
2022-10-13T21:20:48.179Z,13.2
2022-10-13T21:25:48.141Z,13.2
2022-10-13T21:30:48.150Z,13.1
2022-10-13T21:35:48.145Z,13
2022-10-13T21:40:51.668Z,13
2022-10-13T21:45:48.137Z,12.8
2022-10-13T21:50:48.146Z,12.7
2022-10-13T21:55:48.135Z,12.7
2022-10-13T22:00:48.327Z,12.7
2022-10-13T22:05:48.151Z,12.6
2022-10-13T22:10:48.138Z,12.6
2022-10-13T22:15:48.134Z,12.7
2022-10-13T22:20:48.182Z,12.7
2022-10-13T22:25:48.133Z,12.7
2022-10-13T22:30:48.149Z,12.8
2022-10-13T22:35:48.131Z,12.8
2022-10-13T22:40:48.161Z,12.7
2022-10-13T22:45:48.136Z,12.7
2022-10-13T22:50:48.132Z,12.6
2022-10-13T22:55:48.127Z,12.6
2022-10-13T23:00:48.160Z,12.6
2022-10-13T23:05:48.128Z,12.6
2022-10-13T23:10:48.119Z,12.7
2022-10-13T23:15:48.130Z,12.7
2022-10-13T23:20:48.141Z,12.6
2022-10-13T23:25:48.121Z,12.6
2022-10-13T23:30:48.117Z,12.7
2022-10-13T23:35:48.121Z,12.7
2022-10-13T23:40:48.143Z,12.7
2022-10-13T23:45:48.109Z,12.6
2022-10-13T23:50:48.124Z,12.5
2022-10-13T23:55:48.114Z,12.4
